createdAt,value
2018-10-09T00:01:00.272Z,942.23
2018-10-09T00:02:01.614Z,942.28
2018-10-09T00:03:02.129Z,942.27
2018-10-09T00:04:02.755Z,942.24
2018-10-09T00:05:03.823Z,942.28
2018-10-09T00:06:04.789Z,942.28
2018-10-09T00:07:05.862Z,942.27
2018-10-09T00:08:06.929Z,942.27
2018-10-09T00:09:07.721Z,942.24
2018-10-09T00:10:08.513Z,942.3
2018-10-09T00:11:08.858Z,942.26
2018-10-09T00:12:10.206Z,942.27
2018-10-09T00:13:11.282Z,942.23
2018-10-09T00:14:12.346Z,942.27
2018-10-09T00:15:13.414Z,942.22
2018-10-09T00:16:13.976Z,942.25
2018-10-09T00:17:14.323Z,942.21
2018-10-09T00:18:15.836Z,942.22
2018-10-09T00:19:16.905Z,942.21
2018-10-09T00:20:17.697Z,942.21
2018-10-09T00:21:18.494Z,942.19
2018-10-09T00:22:19.119Z,942.2
2018-10-09T00:23:19.912Z,942.19
2018-10-09T00:24:21.427Z,942.18
2018-10-09T00:25:22.496Z,942.21
2018-10-09T00:26:23.700Z,942.19
2018-10-09T00:27:24.933Z,942.18
2018-10-09T00:28:25.728Z,942.23
2018-10-09T00:29:26.796Z,942.19
2018-10-09T00:30:27.587Z,942.2
2018-10-09T00:31:28.488Z,942.2
2018-10-09T00:32:29.278Z,942.23
2018-10-09T00:33:30.627Z,942.21
2018-10-09T00:34:31.255Z,942.23
2018-10-09T00:35:32.326Z,942.24
2018-10-09T00:36:32.852Z,942.23
2018-10-09T00:37:33.408Z,942.2
2018-10-09T00:38:33.883Z,942.2
2018-10-09T00:39:34.717Z,942.19
2018-10-09T00:40:35.065Z,942.24
2018-10-09T00:41:36.301Z,942.22
2018-10-09T00:42:37.369Z,942.23
2018-10-09T00:43:37.714Z,942.24
2018-10-09T00:44:38.506Z,942.2
2018-10-09T00:45:39.576Z,942.22
2018-10-09T00:46:40.667Z,942.22
2018-10-09T00:47:41.182Z,942.23
2018-10-09T00:48:42.244Z,942.19
2018-10-09T00:49:43.478Z,942.22
2018-10-09T00:50:44.542Z,942.18
2018-10-09T00:51:45.610Z,942.24
2018-10-09T00:52:46.397Z,942.22
2018-10-09T00:53:46.903Z,942.24
2018-10-09T00:54:47.975Z,942.24
2018-10-09T00:55:48.482Z,942.22
2018-10-09T00:56:49.271Z,942.24
2018-10-09T00:57:50.337Z,942.27
2018-10-09T00:58:50.683Z,942.22
2018-10-09T00:59:51.197Z,942.26
2018-10-09T01:00:52.429Z,942.26
2018-10-09T01:01:53.048Z,942.26
2018-10-09T01:02:53.840Z,942.27
2018-10-09T01:03:54.627Z,942.27
2018-10-09T01:04:56.138Z,942.21
2018-10-09T01:05:57.650Z,942.23
2018-10-09T01:06:58.885Z,942.25
2018-10-09T01:07:59.955Z,942.21
2018-10-09T01:09:01.379Z,942.22
2018-10-09T01:10:01.854Z,942.22
2018-10-09T01:11:02.916Z,942.18
2018-10-09T01:12:03.707Z,942.2
2018-10-09T01:13:04.214Z,942.17
2018-10-09T01:14:04.727Z,942.18
2018-10-09T01:15:05.958Z,942.17
2018-10-09T01:16:06.579Z,942.19
2018-10-09T01:17:07.871Z,942.2
2018-10-09T01:18:08.657Z,942.18
2018-10-09T01:19:09.446Z,942.2
2018-10-09T01:20:10.507Z,942.19
2018-10-09T01:21:11.850Z,942.19
2018-10-09T01:22:13.358Z,942.17
2018-10-09T01:23:14.431Z,942.17
2018-10-09T01:24:15.220Z,942.19
2018-10-09T01:25:15.740Z,942.18
2018-10-09T01:26:16.523Z,942.18
2018-10-09T01:27:17.486Z,942.18
2018-10-09T01:28:18.556Z,942.21
2018-10-09T01:29:20.155Z,942.21
2018-10-09T01:30:20.944Z,942.22
2018-10-09T01:31:21.566Z,942.24
2018-10-09T01:32:22.226Z,942.26
2018-10-09T01:33:23.015Z,942.25
2018-10-09T01:34:24.080Z,942.23
2018-10-09T01:35:24.898Z,942.26
2018-10-09T01:36:25.405Z,942.25
2018-10-09T01:37:26.641Z,942.23
2018-10-09T01:38:27.154Z,942.24
2018-10-09T01:39:27.664Z,942.22
2018-10-09T01:40:28.734Z,942.21
2018-10-09T01:41:29.123Z,942.24
2018-10-09T01:42:30.023Z,942.23
2018-10-09T01:43:30.808Z,942.25
2018-10-09T01:44:31.875Z,942.25
2018-10-09T01:45:32.385Z,942.26
2018-10-09T01:46:33.172Z,942.26
2018-10-09T01:47:34.405Z,942.26
2018-10-09T01:48:35.192Z,942.28
2018-10-09T01:49:36.289Z,942.26
2018-10-09T01:50:37.636Z,942.26
2018-10-09T01:51:38.144Z,942.23
2018-10-09T01:52:38.932Z,942.21
2018-10-09T01:53:40.002Z,942.19
2018-10-09T01:54:40.546Z,942.15
2018-10-09T01:55:41.020Z,942.17
2018-10-09T01:56:42.084Z,942.17
2018-10-09T01:57:43.160Z,942.16
2018-10-09T01:58:43.950Z,942.16
2018-10-09T01:59:44.745Z,942.18
2018-10-09T02:00:45.256Z,942.13
2018-10-09T02:01:46.040Z,942.15
2018-10-09T02:02:46.384Z,942.15
2018-10-09T02:03:47.448Z,942.17
2018-10-09T02:04:48.069Z,942.15
2018-10-09T02:05:49.579Z,942.17
2018-10-09T02:06:50.368Z,942.1
2018-10-09T02:07:50.884Z,942.15
2018-10-09T02:08:51.677Z,942.14
2018-10-09T02:09:52.488Z,942.12
2018-10-09T02:10:53.275Z,942.15
2018-10-09T02:11:54.346Z,942.15
2018-10-09T02:12:54.854Z,942.18
2018-10-09T02:13:55.202Z,942.17
2018-10-09T02:14:55.710Z,942.14
2018-10-09T02:15:56.941Z,942.18
2018-10-09T02:16:58.007Z,942.15
2018-10-09T02:17:58.798Z,942.15
2018-10-09T02:18:59.309Z,942.13
2018-10-09T02:20:00.653Z,942.13
2018-10-09T02:21:01.171Z,942.16
2018-10-09T02:22:01.678Z,942.11
2018-10-09T02:23:02.187Z,942.13
2018-10-09T02:24:02.812Z,942.13
2018-10-09T02:25:03.322Z,942.16
2018-10-09T02:26:04.390Z,942.15
2018-10-09T02:27:05.179Z,942.16
2018-10-09T02:28:05.731Z,942.16
2018-10-09T02:29:06.075Z,942.14
2018-10-09T02:30:07.139Z,942.11
2018-10-09T02:31:08.607Z,942.15
2018-10-09T02:32:08.954Z,942.11
2018-10-09T02:33:09.580Z,942.12
2018-10-09T02:34:10.924Z,942.13
2018-10-09T02:35:11.547Z,942.1
2018-10-09T02:36:12.609Z,942.15
2018-10-09T02:37:13.398Z,942.12
2018-10-09T02:38:13.925Z,942.1
2018-10-09T02:39:14.546Z,942.06
2018-10-09T02:40:15.180Z,942.04
2018-10-09T02:41:15.526Z,942.07
2018-10-09T02:42:15.921Z,942.06
2018-10-09T02:43:16.267Z,942.08
2018-10-09T02:44:17.333Z,942.05
2018-10-09T02:45:18.396Z,942.07
2018-10-09T02:46:19.186Z,942.1
2018-10-09T02:47:19.990Z,942.14
2018-10-09T02:48:20.987Z,942.14
2018-10-09T02:49:22.053Z,942.19
2018-10-09T02:50:22.400Z,942.19
2018-10-09T02:51:23.072Z,942.19
2018-10-09T02:52:23.580Z,942.19
2018-10-09T02:53:24.700Z,942.21
2018-10-09T02:54:25.482Z,942.21
2018-10-09T02:55:26.273Z,942.24
2018-10-09T02:56:26.614Z,942.19
2018-10-09T02:57:27.404Z,942.17
2018-10-09T02:58:28.471Z,942.16
2018-10-09T02:59:29.255Z,942.16
2018-10-09T03:00:29.767Z,942.17
2018-10-09T03:01:30.109Z,942.15
2018-10-09T03:02:30.454Z,942.18
2018-10-09T03:03:31.520Z,942.17
2018-10-09T03:04:32.306Z,942.16
2018-10-09T03:05:33.093Z,942.17
2018-10-09T03:06:34.161Z,942.19
2018-10-09T03:07:34.950Z,942.18
2018-10-09T03:08:47.159Z,942.18
2018-10-09T03:09:48.399Z,942.19
2018-10-09T03:10:49.631Z,942.2
2018-10-09T03:11:50.973Z,942.2
2018-10-09T03:12:52.314Z,942.17
2018-10-09T03:13:53.100Z,942.19
2018-10-09T03:14:53.888Z,942.18
2018-10-09T03:15:54.954Z,942.19
2018-10-09T03:16:55.746Z,942.16
2018-10-09T03:17:56.253Z,942.16
2018-10-09T03:18:56.875Z,942.13
2018-10-09T03:19:58.109Z,942.12
2018-10-09T03:20:59.171Z,942.11
2018-10-09T03:22:00.410Z,942.07
2018-10-09T03:23:01.195Z,942.04
2018-10-09T03:24:01.712Z,942.02
2018-10-09T03:25:02.781Z,942.01
2018-10-09T03:26:03.312Z,942.01
2018-10-09T03:27:04.545Z,941.98
2018-10-09T03:28:05.330Z,941.97
2018-10-09T03:29:06.118Z,941.97
2018-10-09T03:30:06.940Z,941.99
2018-10-09T03:31:07.854Z,941.97
2018-10-09T03:32:08.479Z,941.98
2018-10-09T03:33:09.101Z,941.97
2018-10-09T03:34:10.449Z,941.94
2018-10-09T03:35:11.513Z,941.95
2018-10-09T03:36:12.747Z,941.93
2018-10-09T03:37:13.812Z,941.92
2018-10-09T03:38:15.047Z,941.91
2018-10-09T03:39:15.836Z,941.9
2018-10-09T03:40:17.098Z,941.88
2018-10-09T03:41:17.611Z,941.87
2018-10-09T03:42:18.397Z,941.84
2018-10-09T03:43:19.019Z,941.82
2018-10-09T03:44:19.809Z,941.84
2018-10-09T03:45:21.043Z,941.86
2018-10-09T03:46:21.551Z,941.85
2018-10-09T03:47:22.060Z,941.87
2018-10-09T03:48:22.844Z,941.83
2018-10-09T03:49:23.911Z,941.83
2018-10-09T03:50:24.869Z,941.86
2018-10-09T03:51:25.933Z,941.82
2018-10-09T03:52:26.442Z,941.85
2018-10-09T03:53:27.508Z,941.85
2018-10-09T03:54:28.747Z,941.85
2018-10-09T03:55:29.530Z,941.86
2018-10-09T03:56:30.596Z,941.86
2018-10-09T03:57:31.826Z,941.82
2018-10-09T03:58:32.611Z,941.85
2018-10-09T03:59:33.673Z,941.86
2018-10-09T04:00:34.640Z,941.84
2018-10-09T04:01:35.701Z,941.87
2018-10-09T04:02:36.491Z,941.87
2018-10-09T04:03:37.555Z,941.89
2018-10-09T04:04:37.896Z,941.88
2018-10-09T04:05:38.684Z,941.91
2018-10-09T04:06:39.470Z,941.88
2018-10-09T04:07:40.539Z,941.89
2018-10-09T04:08:41.330Z,941.92
2018-10-09T04:09:42.114Z,941.94
2018-10-09T04:10:42.908Z,941.94
2018-10-09T04:11:43.696Z,941.94
2018-10-09T04:12:44.846Z,941.93
2018-10-09T04:13:45.356Z,941.94
2018-10-09T04:14:46.865Z,941.97
2018-10-09T04:15:47.374Z,941.92
2018-10-09T04:16:47.716Z,941.93
2018-10-09T04:17:48.520Z,941.93
2018-10-09T04:18:49.032Z,941.92
2018-10-09T04:19:49.827Z,941.93
2018-10-09T04:20:50.782Z,941.96
2018-10-09T04:21:51.289Z,942.01
2018-10-09T04:22:51.799Z,941.98
2018-10-09T04:23:52.590Z,941.97
2018-10-09T04:24:52.941Z,941.99
2018-10-09T04:25:54.007Z,942.01
2018-10-09T04:26:55.238Z,942
2018-10-09T04:27:55.747Z,942
2018-10-09T04:28:56.535Z,941.98
2018-10-09T04:29:57.057Z,941.97
2018-10-09T04:30:57.740Z,941.97
2018-10-09T04:31:58.257Z,941.92
2018-10-09T04:32:59.760Z,941.92
2018-10-09T04:34:01.105Z,941.97
2018-10-09T04:35:01.894Z,941.95
2018-10-09T04:36:03.128Z,942
2018-10-09T04:37:04.197Z,942.01
2018-10-09T04:38:04.701Z,942.03
2018-10-09T04:39:05.487Z,942.06
2018-10-09T04:40:07.000Z,942.07
2018-10-09T04:41:07.802Z,942.06
2018-10-09T04:42:08.143Z,942.04
2018-10-09T04:43:09.484Z,942.06
2018-10-09T04:44:09.999Z,942.04
2018-10-09T04:45:11.064Z,942.03
2018-10-09T04:46:12.129Z,942.02
2018-10-09T04:47:12.917Z,942.01
2018-10-09T04:48:13.812Z,942.03
2018-10-09T04:49:15.043Z,942.03
2018-10-09T04:50:16.109Z,942.04
2018-10-09T04:51:17.352Z,942.07
2018-10-09T04:52:18.143Z,942.1
2018-10-09T04:53:18.935Z,942.1
2018-10-09T04:54:19.443Z,942.13
2018-10-09T04:55:20.065Z,942.12
2018-10-09T04:56:20.886Z,942.17
2018-10-09T04:57:21.513Z,942.13
2018-10-09T04:58:22.579Z,942.14
2018-10-09T04:59:23.089Z,942.18
2018-10-09T05:00:23.709Z,942.17
2018-10-09T05:01:24.680Z,942.2
2018-10-09T05:02:25.747Z,942.19
2018-10-09T05:03:26.814Z,942.25
2018-10-09T05:04:28.155Z,942.24
2018-10-09T05:05:28.663Z,942.26
2018-10-09T05:06:29.732Z,942.25
2018-10-09T05:07:30.800Z,942.23
2018-10-09T05:08:31.310Z,942.23
2018-10-09T05:09:32.096Z,942.26
2018-10-09T05:10:33.160Z,942.26
2018-10-09T05:11:34.434Z,942.26
2018-10-09T05:12:34.943Z,942.3
2018-10-09T05:13:36.178Z,942.32
2018-10-09T05:14:36.964Z,942.34
2018-10-09T05:15:38.309Z,942.34
2018-10-09T05:16:39.381Z,942.3
2018-10-09T05:17:40.187Z,942.29
2018-10-09T05:18:40.889Z,942.28
2018-10-09T05:19:41.234Z,942.28
2018-10-09T05:20:42.297Z,942.23
2018-10-09T05:21:43.259Z,942.28
2018-10-09T05:22:43.876Z,942.3
2018-10-09T05:23:44.663Z,942.28
2018-10-09T05:24:45.731Z,942.34
2018-10-09T05:25:46.241Z,942.33
2018-10-09T05:26:47.031Z,942.35
2018-10-09T05:27:47.376Z,942.35
2018-10-09T05:28:48.161Z,942.33
2018-10-09T05:29:49.510Z,942.33
2018-10-09T05:30:50.294Z,942.35
2018-10-09T05:31:51.238Z,942.33
2018-10-09T05:32:52.305Z,942.33
2018-10-09T05:33:53.372Z,942.37
2018-10-09T05:34:53.719Z,942.36
2018-10-09T05:35:55.230Z,942.37
2018-10-09T05:36:55.907Z,942.37
2018-10-09T05:37:56.971Z,942.35
2018-10-09T05:38:58.478Z,942.36
2018-10-09T05:39:59.545Z,942.38
2018-10-09T05:41:00.618Z,942.38
2018-10-09T05:42:01.138Z,942.39
2018-10-09T05:43:02.333Z,942.41
2018-10-09T05:44:03.714Z,942.4
2018-10-09T05:45:04.917Z,942.37
2018-10-09T05:46:05.539Z,942.43
2018-10-09T05:47:05.898Z,942.42
2018-10-09T05:48:06.241Z,942.4
2018-10-09T05:49:07.308Z,942.39
2018-10-09T05:50:07.963Z,942.38
2018-10-09T05:51:09.032Z,942.39
2018-10-09T05:52:10.106Z,942.38
2018-10-09T05:53:10.894Z,942.37
2018-10-09T05:54:11.431Z,942.37
2018-10-09T05:55:12.492Z,942.4
2018-10-09T05:56:13.003Z,942.43
2018-10-09T05:57:14.076Z,942.43
2018-10-09T05:58:14.867Z,942.44
2018-10-09T05:59:15.663Z,942.41
2018-10-09T06:00:16.733Z,942.44
2018-10-09T06:01:17.532Z,942.45
2018-10-09T06:02:18.553Z,942.45
2018-10-09T06:03:19.369Z,942.42
2018-10-09T06:04:19.719Z,942.4
2018-10-09T06:05:20.788Z,942.43
2018-10-09T06:06:21.857Z,942.47
2018-10-09T06:07:22.924Z,942.48
2018-10-09T06:08:24.002Z,942.45
2018-10-09T06:09:24.801Z,942.44
2018-10-09T06:10:25.922Z,942.45
2018-10-09T06:11:26.403Z,942.46
2018-10-09T06:12:27.640Z,942.48
2018-10-09T06:13:28.152Z,942.5
2018-10-09T06:14:28.943Z,942.49
2018-10-09T06:15:30.439Z,942.49
2018-10-09T06:16:31.433Z,942.51
2018-10-09T06:17:32.498Z,942.54
2018-10-09T06:18:33.618Z,942.52
2018-10-09T06:19:34.695Z,942.56
2018-10-09T06:20:35.763Z,942.55
2018-10-09T06:21:36.556Z,942.51
2018-10-09T06:22:36.974Z,942.49
2018-10-09T06:23:37.763Z,942.49
2018-10-09T06:24:38.555Z,942.5
2018-10-09T06:25:39.357Z,942.51
2018-10-09T06:26:39.871Z,942.49
2018-10-09T06:27:40.942Z,942.51
2018-10-09T06:28:41.730Z,942.52
2018-10-09T06:29:42.243Z,942.55
2018-10-09T06:30:42.758Z,942.49
2018-10-09T06:31:43.827Z,942.55
2018-10-09T06:32:45.093Z,942.55
2018-10-09T06:33:45.942Z,942.54
2018-10-09T06:34:46.372Z,942.53
2018-10-09T06:35:46.722Z,942.55
2018-10-09T06:36:47.801Z,942.56
2018-10-09T06:37:48.591Z,942.57
2018-10-09T06:38:49.625Z,942.57
2018-10-09T06:39:49.809Z,942.54
2018-10-09T06:40:50.324Z,942.6
2018-10-09T06:41:50.959Z,942.55
2018-10-09T06:42:51.984Z,942.55
2018-10-09T06:43:52.375Z,942.52
2018-10-09T06:44:52.886Z,942.53
2018-10-09T06:45:53.675Z,942.51
2018-10-09T06:46:54.393Z,942.54
2018-10-09T06:47:55.463Z,942.5
2018-10-09T06:48:56.262Z,942.51
2018-10-09T06:49:57.053Z,942.55
2018-10-09T06:50:57.958Z,942.51
2018-10-09T06:51:59.026Z,942.51
2018-10-09T06:53:00.273Z,942.54
2018-10-09T06:54:01.324Z,942.53
2018-10-09T06:55:02.149Z,942.55
2018-10-09T06:56:03.398Z,942.59
2018-10-09T06:57:04.024Z,942.64
2018-10-09T06:58:05.260Z,942.57
2018-10-09T06:59:06.498Z,942.61
2018-10-09T07:00:07.619Z,942.6
2018-10-09T07:01:08.484Z,942.57
2018-10-09T07:02:09.252Z,942.64
2018-10-09T07:03:09.975Z,942.59
2018-10-09T07:04:10.772Z,942.61
2018-10-09T07:05:11.289Z,942.61
2018-10-09T07:06:12.363Z,942.61
2018-10-09T07:07:13.438Z,942.6
2018-10-09T07:08:14.072Z,942.56
2018-10-09T07:09:15.159Z,942.56
2018-10-09T07:10:15.637Z,942.54
2018-10-09T07:11:17.331Z,942.57
2018-10-09T07:12:18.138Z,942.57
2018-10-09T07:13:19.412Z,942.55
2018-10-09T07:14:19.765Z,942.57
2018-10-09T07:15:20.284Z,942.54
2018-10-09T07:16:20.799Z,942.54
2018-10-09T07:17:21.872Z,942.46
2018-10-09T07:18:23.005Z,942.48
2018-10-09T07:19:23.305Z,942.49
2018-10-09T07:20:24.100Z,942.5
2018-10-09T07:21:25.174Z,942.46
2018-10-09T07:22:26.252Z,942.48
2018-10-09T07:23:27.056Z,942.49
2018-10-09T07:24:28.128Z,942.48
2018-10-09T07:25:28.646Z,942.45
2018-10-09T07:26:29.276Z,942.47
2018-10-09T07:27:29.627Z,942.47
2018-10-09T07:28:30.149Z,942.49
2018-10-09T07:29:31.673Z,942.51
2018-10-09T07:30:32.648Z,942.52
2018-10-09T07:31:33.732Z,942.52
2018-10-09T07:32:35.614Z,942.58
2018-10-09T07:32:48.824Z,942.55
2018-10-09T07:33:50.367Z,942.58
2018-10-09T07:34:51.906Z,942.55
2018-10-09T07:35:52.528Z,942.62
2018-10-09T07:36:53.174Z,942.55
2018-10-09T07:37:54.254Z,942.58
2018-10-09T07:38:55.051Z,942.55
2018-10-09T07:39:55.853Z,942.6
2018-10-09T07:40:56.656Z,942.55
2018-10-09T07:41:57.294Z,942.56
2018-10-09T07:42:58.365Z,942.52
2018-10-09T07:43:59.803Z,942.55
2018-10-09T07:45:00.716Z,942.53
2018-10-09T07:46:01.072Z,942.58
2018-10-09T07:47:01.876Z,942.56
2018-10-09T07:48:02.237Z,942.51
2018-10-09T07:49:02.622Z,942.54
2018-10-09T07:50:03.253Z,942.56
2018-10-09T07:51:03.772Z,942.55
2018-10-09T07:52:04.399Z,942.55
2018-10-09T07:53:04.917Z,942.5
2018-10-09T07:54:05.885Z,942.54
2018-10-09T07:55:06.409Z,942.5
2018-10-09T07:56:06.924Z,942.58
2018-10-09T07:57:07.449Z,942.61
2018-10-09T07:58:08.245Z,942.64
2018-10-09T07:59:08.777Z,942.64
2018-10-09T08:00:09.850Z,942.64
2018-10-09T08:01:10.929Z,942.71
2018-10-09T08:02:11.728Z,942.72
2018-10-09T08:03:12.804Z,942.71
2018-10-09T08:04:13.125Z,942.7
2018-10-09T08:05:14.645Z,942.7
2018-10-09T08:06:15.165Z,942.71
2018-10-09T08:07:15.962Z,942.72
2018-10-09T08:08:17.037Z,942.73
2018-10-09T08:09:17.670Z,942.78
2018-10-09T08:10:18.919Z,942.81
2018-10-09T08:11:19.740Z,942.88
2018-10-09T08:12:20.538Z,942.88
2018-10-09T08:13:21.612Z,942.88
2018-10-09T08:14:22.655Z,942.88
2018-10-09T08:15:23.181Z,942.91
2018-10-09T08:16:24.827Z,942.93
2018-10-09T08:17:25.721Z,942.94
2018-10-09T08:18:26.847Z,942.91
2018-10-09T08:19:27.412Z,942.92
2018-10-09T08:20:27.936Z,942.92
2018-10-09T08:21:29.011Z,942.93
2018-10-09T08:22:29.920Z,942.94
2018-10-09T08:23:30.937Z,942.95
2018-10-09T08:24:31.578Z,942.97
2018-10-09T08:25:32.375Z,942.96
2018-10-09T08:26:33.453Z,942.96
2018-10-09T08:27:34.246Z,943
2018-10-09T08:28:34.766Z,943.02
2018-10-09T08:29:35.845Z,943.03
2018-10-09T08:30:36.643Z,943.08
2018-10-09T08:31:37.734Z,943.03
2018-10-09T08:32:38.811Z,943.09
2018-10-09T08:33:39.332Z,943.02
2018-10-09T08:34:40.408Z,943.04
2018-10-09T08:35:41.806Z,943.08
2018-10-09T08:36:43.161Z,943.07
2018-10-09T08:37:44.400Z,943.07
2018-10-09T08:38:44.923Z,943.06
2018-10-09T08:39:45.718Z,943.02
2018-10-09T08:40:46.404Z,943.03
2018-10-09T08:41:47.302Z,943.04
2018-10-09T08:42:48.386Z,943.03
2018-10-09T08:43:48.911Z,943.01
2018-10-09T08:44:49.877Z,943.05
2018-10-09T08:45:50.369Z,943.06
2018-10-09T08:46:51.447Z,943.03
2018-10-09T08:47:52.178Z,943.01
2018-10-09T08:48:53.299Z,943
2018-10-09T08:49:54.030Z,942.99
2018-10-09T08:50:54.383Z,943.01
2018-10-09T08:51:54.938Z,943.02
2018-10-09T08:52:55.252Z,943.01
2018-10-09T08:53:56.048Z,943.01
2018-10-09T08:54:57.300Z,943
2018-10-09T08:55:58.661Z,943.01
2018-10-09T08:56:59.473Z,943
2018-10-09T08:57:59.821Z,942.99
2018-10-09T08:59:00.490Z,943
2018-10-09T09:00:01.579Z,943
2018-10-09T09:01:02.820Z,943.01
2018-10-09T09:02:03.910Z,942.96
2018-10-09T09:03:04.710Z,943.04
2018-10-09T09:04:05.082Z,943.02
2018-10-09T09:05:06.064Z,942.97
2018-10-09T09:06:07.139Z,942.98
2018-10-09T09:07:07.654Z,942.99
2018-10-09T09:08:08.174Z,942.98
2018-10-09T09:09:09.528Z,942.96
2018-10-09T09:10:10.050Z,943.01
2018-10-09T09:11:11.298Z,943
2018-10-09T09:12:12.377Z,943
2018-10-09T09:13:13.174Z,942.98
2018-10-09T09:14:14.432Z,942.97
2018-10-09T09:15:15.892Z,942.98
2018-10-09T09:16:16.981Z,943.03
2018-10-09T09:17:18.067Z,943.03
2018-10-09T09:18:19.584Z,943.02
2018-10-09T09:19:20.103Z,943.06
2018-10-09T09:20:20.923Z,943.02
2018-10-09T09:21:22.675Z,943.04
2018-10-09T09:22:23.044Z,943
2018-10-09T09:23:24.344Z,943.02
2018-10-09T09:24:25.229Z,942.99
2018-10-09T09:25:26.113Z,943.02
2018-10-09T09:26:27.106Z,943.01
2018-10-09T09:27:28.254Z,942.99
2018-10-09T09:28:28.753Z,942.99
2018-10-09T09:29:29.828Z,942.99
2018-10-09T09:30:31.074Z,942.98
2018-10-09T09:31:31.876Z,942.98
2018-10-09T09:32:32.680Z,942.96
2018-10-09T09:33:34.198Z,942.94
2018-10-09T09:34:35.012Z,942.93
2018-10-09T09:35:35.561Z,942.95
2018-10-09T09:36:35.926Z,942.96
2018-10-09T09:37:36.866Z,942.96
2018-10-09T09:38:37.274Z,942.96
2018-10-09T09:39:38.515Z,942.94
2018-10-09T09:40:39.311Z,942.94
2018-10-09T09:41:40.457Z,942.94
2018-10-09T09:42:41.288Z,942.89
2018-10-09T09:43:42.530Z,942.9
2018-10-09T09:44:43.106Z,942.88
2018-10-09T09:45:43.539Z,942.83
2018-10-09T09:46:44.469Z,942.84
2018-10-09T09:47:45.716Z,942.83
2018-10-09T09:48:46.237Z,942.84
2018-10-09T09:49:47.320Z,942.8
2018-10-09T09:50:48.388Z,942.79
2018-10-09T09:51:48.907Z,942.77
2018-10-09T09:52:49.777Z,942.85
2018-10-09T09:53:50.577Z,942.84
2018-10-09T09:54:51.108Z,942.82
2018-10-09T09:55:51.798Z,942.82
2018-10-09T09:56:52.596Z,942.82
2018-10-09T09:57:53.156Z,942.83
2018-10-09T09:58:55.239Z,942.81
2018-10-09T09:59:55.856Z,942.84
2018-10-09T10:00:56.812Z,942.85
2018-10-09T10:01:57.171Z,942.86
2018-10-09T10:02:58.246Z,942.88
2018-10-09T10:03:58.769Z,942.88
2018-10-09T10:05:00.126Z,942.88
2018-10-09T10:06:01.064Z,942.89
2018-10-09T10:07:01.700Z,942.88
2018-10-09T10:08:02.780Z,942.91
2018-10-09T10:09:03.640Z,942.94
2018-10-09T10:10:04.503Z,942.94
2018-10-09T10:11:05.773Z,942.91
2018-10-09T10:12:06.131Z,942.91
2018-10-09T10:13:07.098Z,942.96
2018-10-09T10:14:07.625Z,942.94
2018-10-09T10:15:08.355Z,942.9
2018-10-09T10:16:08.920Z,942.92
2018-10-09T10:17:09.717Z,942.91
2018-10-09T10:18:10.241Z,942.96
2018-10-09T10:19:11.677Z,942.95
2018-10-09T10:20:12.173Z,942.91
2018-10-09T10:21:13.633Z,942.93
2018-10-09T10:22:14.415Z,942.91
2018-10-09T10:23:15.666Z,942.92
2018-10-09T10:24:17.020Z,942.96
2018-10-09T10:25:18.264Z,942.96
2018-10-09T10:26:19.520Z,942.95
2018-10-09T10:27:20.664Z,942.94
2018-10-09T10:28:21.741Z,942.99
2018-10-09T10:29:22.892Z,942.92
2018-10-09T10:30:23.915Z,942.93
2018-10-09T10:31:24.717Z,942.95
2018-10-09T10:32:25.890Z,942.95
2018-10-09T10:33:26.798Z,942.93
2018-10-09T10:34:27.688Z,942.98
2018-10-09T10:35:28.204Z,942.97
2018-10-09T10:36:28.986Z,942.94
2018-10-09T10:37:30.705Z,942.96
2018-10-09T10:38:30.968Z,942.97
2018-10-09T10:39:31.494Z,942.94
2018-10-09T10:40:32.748Z,942.93
2018-10-09T10:41:33.270Z,942.88
2018-10-09T10:42:33.822Z,942.9
2018-10-09T10:43:34.630Z,942.89
2018-10-09T10:44:35.007Z,942.86
2018-10-09T10:45:36.129Z,942.88
2018-10-09T10:46:36.515Z,942.89
2018-10-09T10:47:37.885Z,942.9
2018-10-09T10:48:38.733Z,942.86
2018-10-09T10:49:39.843Z,942.87
2018-10-09T10:50:40.478Z,942.86
2018-10-09T10:51:41.455Z,942.87
2018-10-09T10:52:41.710Z,942.89
2018-10-09T10:53:43.187Z,942.8
2018-10-09T10:54:44.276Z,942.77
2018-10-09T10:55:45.699Z,942.82
2018-10-09T10:56:46.785Z,942.79
2018-10-09T10:57:48.568Z,942.85
2018-10-09T10:58:49.180Z,942.78
2018-10-09T10:59:49.996Z,942.87
2018-10-09T11:00:54.974Z,942.81
2018-10-09T11:01:03.339Z,942.82
2018-10-09T11:02:03.533Z,942.78
2018-10-09T11:03:04.618Z,942.76
2018-10-09T11:04:05.694Z,942.75
2018-10-09T11:05:06.947Z,942.76
2018-10-09T11:06:08.188Z,942.74
2018-10-09T11:07:09.271Z,942.78
2018-10-09T11:08:10.157Z,942.82
2018-10-09T11:09:11.333Z,942.81
2018-10-09T11:10:12.247Z,942.78
2018-10-09T11:11:13.408Z,942.78
2018-10-09T11:12:13.644Z,942.75
2018-10-09T11:13:14.455Z,942.75
2018-10-09T11:14:15.005Z,942.72
2018-10-09T11:15:16.034Z,942.74
2018-10-09T11:16:17.117Z,942.79
2018-10-09T11:17:18.207Z,942.69
2018-10-09T11:18:19.190Z,942.69
2018-10-09T11:19:19.465Z,942.69
2018-10-09T11:20:20.268Z,942.68
2018-10-09T11:21:22.058Z,942.69
2018-10-09T11:22:23.162Z,942.66
2018-10-09T11:23:24.409Z,942.63
2018-10-09T11:24:24.937Z,942.65
2018-10-09T11:25:26.503Z,942.64
2018-10-09T11:26:27.087Z,942.65
2018-10-09T11:27:28.019Z,942.59
2018-10-09T11:28:28.821Z,942.58
2018-10-09T11:29:29.628Z,942.61
2018-10-09T11:30:30.427Z,942.64
2018-10-09T11:31:31.229Z,942.62
2018-10-09T11:32:33.215Z,942.62
2018-10-09T11:33:34.284Z,942.6
2018-10-09T11:34:35.217Z,942.62
2018-10-09T11:35:36.277Z,942.65
2018-10-09T11:36:37.431Z,942.61
2018-10-09T11:37:38.518Z,942.6
2018-10-09T11:38:39.763Z,942.59
2018-10-09T11:39:40.572Z,942.57
2018-10-09T11:40:41.375Z,942.55
2018-10-09T11:41:41.766Z,942.53
2018-10-09T11:42:42.607Z,942.48
2018-10-09T11:43:43.920Z,942.48
2018-10-09T11:44:44.446Z,942.47
2018-10-09T11:45:45.523Z,942.49
2018-10-09T11:46:46.327Z,942.45
2018-10-09T11:47:47.570Z,942.47
2018-10-09T11:48:48.657Z,942.4
2018-10-09T11:49:49.734Z,942.36
2018-10-09T11:50:51.091Z,942.34
2018-10-09T11:51:51.966Z,942.35
2018-10-09T11:52:53.234Z,942.33
2018-10-09T11:53:54.314Z,942.34
2018-10-09T11:54:54.947Z,942.34
2018-10-09T11:55:56.268Z,942.35
2018-10-09T11:56:56.642Z,942.32
2018-10-09T11:57:57.172Z,942.34
2018-10-09T11:58:57.954Z,942.35
2018-10-09T11:59:58.625Z,942.39
2018-10-09T12:00:59.741Z,942.4
2018-10-09T12:02:01.130Z,942.37
2018-10-09T12:03:02.404Z,942.33
2018-10-09T12:04:03.222Z,942.35
2018-10-09T12:05:04.511Z,942.39
2018-10-09T12:06:05.249Z,942.39
2018-10-09T12:07:06.334Z,942.33
2018-10-09T12:08:07.152Z,942.36
2018-10-09T12:09:07.811Z,942.36
2018-10-09T12:10:08.887Z,942.36
2018-10-09T12:11:09.692Z,942.3
2018-10-09T12:12:10.220Z,942.32
2018-10-09T12:13:10.919Z,942.34
2018-10-09T12:14:11.771Z,942.34
2018-10-09T12:15:12.557Z,942.29
2018-10-09T12:16:13.514Z,942.31
2018-10-09T12:17:13.870Z,942.28
2018-10-09T12:17:26.915Z,942.26
2018-10-09T12:18:28.175Z,942.26
2018-10-09T12:19:28.984Z,942.24
2018-10-09T12:20:29.508Z,942.26
2018-10-09T12:21:31.070Z,942.28
2018-10-09T12:22:31.569Z,942.25
2018-10-09T12:23:32.101Z,942.29
2018-10-09T12:24:33.154Z,942.25
2018-10-09T12:25:33.740Z,942.26
2018-10-09T12:26:35.308Z,942.23
2018-10-09T12:27:36.473Z,942.26
2018-10-09T12:28:37.682Z,942.24
2018-10-09T12:29:38.293Z,942.2
2018-10-09T12:30:38.908Z,942.18
2018-10-09T12:31:39.519Z,942.17
2018-10-09T12:32:40.984Z,942.18
2018-10-09T12:33:41.324Z,942.17
2018-10-09T12:34:42.212Z,942.17
2018-10-09T12:35:43.019Z,942.18
2018-10-09T12:36:44.004Z,942.15
2018-10-09T12:37:45.350Z,942.17
2018-10-09T12:38:45.734Z,942.11
2018-10-09T12:39:46.816Z,942.11
2018-10-09T12:40:47.627Z,942.15